createdAt,value
2022-10-21T00:04:50.228Z,99178.83
2022-10-21T00:09:52.206Z,99187.48
2022-10-21T00:14:56.441Z,99190.73
2022-10-21T00:19:59.150Z,99197.88
2022-10-21T00:25:00.956Z,99187.67
2022-10-21T00:30:05.415Z,99175.95
2022-10-21T00:35:07.543Z,99166.20
2022-10-21T00:40:09.772Z,99167.61
2022-10-21T00:45:17.215Z,99170.28
2022-10-21T00:50:28.154Z,99161.70
2022-10-21T00:55:34.186Z,99152.64
2022-10-21T01:00:36.176Z,99147.91
2022-10-21T01:05:40.812Z,99134.08
2022-10-21T01:10:42.660Z,99122.42
2022-10-21T01:15:58.132Z,99124.42
2022-10-21T01:21:26.041Z,99116.77
2022-10-21T01:26:56.076Z,99116.14
2022-10-21T01:32:33.132Z,99113.07
2022-10-21T01:37:43.745Z,99117.30
2022-10-21T01:42:53.634Z,99120.52
2022-10-21T01:48:03.035Z,99122.00
2022-10-21T01:53:11.636Z,99107.24
2022-10-21T01:58:19.730Z,99103.55
2022-10-21T02:03:26.215Z,99105.10
2022-10-21T02:08:28.195Z,99094.96
2022-10-21T02:13:40.124Z,99096.60
2022-10-21T02:18:41.905Z,99082.92
2022-10-21T02:23:54.575Z,99071.29
2022-10-21T02:28:59.421Z,99078.25
2022-10-21T02:34:10.367Z,99078.13
2022-10-21T02:39:21.189Z,99074.59
2022-10-21T02:44:23.603Z,99073.52
2022-10-21T02:49:25.405Z,99061.22
2022-10-21T02:54:27.183Z,99050.86
2022-10-21T02:59:29.064Z,99041.15
2022-10-21T03:04:30.812Z,99042.23
2022-10-21T03:09:32.737Z,99036.39
2022-10-21T03:14:34.463Z,99032.23
2022-10-21T03:19:36.244Z,99029.73
2022-10-21T03:24:37.972Z,99027.94
2022-10-21T03:29:39.833Z,99025.27
2022-10-21T03:34:41.655Z,99020.37
2022-10-21T03:39:43.632Z,99018.92
2022-10-21T03:44:45.549Z,99019.48
2022-10-21T03:49:47.273Z,99029.31
2022-10-21T03:54:49.119Z,99025.24
2022-10-21T03:59:50.840Z,99020.77
2022-10-21T04:04:52.585Z,99023.24
2022-10-21T04:09:54.348Z,99028.73
2022-10-21T04:14:56.138Z,99028.63
2022-10-21T04:19:57.916Z,99026.52
2022-10-21T04:25:02.274Z,99009.83
2022-10-21T04:30:07.363Z,99000.71
2022-10-21T04:35:09.273Z,99009.40
2022-10-21T04:40:11.287Z,99009.00
2022-10-21T04:45:13.015Z,99012.95
2022-10-21T04:50:14.830Z,99002.59
2022-10-21T04:55:16.731Z,99002.23
2022-10-21T05:00:18.719Z,98995.70
2022-10-21T05:05:20.441Z,98996.95
2022-10-21T05:10:23.859Z,98998.52
2022-10-21T05:15:26.248Z,98995.91
2022-10-21T05:20:28.198Z,98977.33
2022-10-21T05:25:31.841Z,99006.14
2022-10-21T05:30:36.178Z,98982.14
2022-10-21T05:35:37.990Z,98990.48
2022-10-21T05:40:39.794Z,98985.39
2022-10-21T05:45:41.499Z,98987.38
2022-10-21T05:50:43.454Z,98986.52
2022-10-21T05:55:45.187Z,98983.61
2022-10-21T06:00:56.291Z,98987.73
2022-10-21T06:06:00.320Z,98985.78
2022-10-21T06:11:07.103Z,98980.81
2022-10-21T06:16:10.064Z,98986.45
2022-10-21T06:21:13.381Z,98991.32
2022-10-21T06:26:16.763Z,98992.47
2022-10-21T06:31:21.640Z,98985.52
2022-10-21T06:36:23.382Z,98982.11
2022-10-21T06:41:25.356Z,98973.55
2022-10-21T06:46:27.285Z,98965.99
2022-10-21T06:51:29.583Z,98946.66
2022-10-21T06:56:31.955Z,98948.23
2022-10-21T07:01:48.122Z,98943.33
2022-10-21T07:06:55.574Z,98937.27
2022-10-21T07:11:57.352Z,98933.14
2022-10-21T07:16:59.116Z,98943.00
2022-10-21T07:22:01.318Z,98933.27
2022-10-21T07:27:03.127Z,98930.98
2022-10-21T07:32:05.016Z,98917.96
2022-10-21T07:37:06.913Z,98913.84
2022-10-21T07:42:09.906Z,98906.02
2022-10-21T07:47:11.631Z,98900.90
2022-10-21T07:57:20.146Z,98893.79
2022-10-21T08:02:24.098Z,98884.09
2022-10-21T08:07:25.910Z,98882.89
2022-10-21T08:12:27.659Z,98873.98
2022-10-21T08:17:29.376Z,98863.64
2022-10-21T08:22:31.064Z,98859.66
2022-10-21T08:27:33.953Z,98851.40
2022-10-21T08:32:35.908Z,98846.85
2022-10-21T08:37:38.104Z,98837.64
2022-10-21T08:42:42.646Z,98834.70
2022-10-21T08:47:50.032Z,98823.91
2022-10-21T08:52:58.844Z,98816.83
2022-10-21T08:58:01.979Z,98814.29
2022-10-21T09:03:31.560Z,98807.91
2022-10-21T09:08:42.079Z,98799.12
2022-10-21T09:14:13.180Z,98798.63
2022-10-21T09:19:24.042Z,98797.23
2022-10-21T09:24:32.828Z,98786.27
2022-10-21T09:29:43.404Z,98777.77
2022-10-21T09:35:29.654Z,98770.00
2022-10-21T09:40:31.982Z,98764.02
2022-10-21T09:45:43.861Z,98765.14
2022-10-21T09:50:48.478Z,98764.73
2022-10-21T09:55:56.355Z,98769.09
2022-10-21T10:00:58.944Z,98771.68
2022-10-21T10:06:01.722Z,98770.17
2022-10-21T10:11:03.485Z,98776.08
2022-10-21T10:16:17.455Z,98776.23
2022-10-21T10:21:21.284Z,98771.50
2022-10-21T10:26:32.334Z,98764.94
2022-10-21T10:31:36.138Z,98758.06
2022-10-21T10:36:40.475Z,98761.17
2022-10-21T10:41:47.434Z,98756.25
2022-10-21T10:46:55.971Z,98738.86
2022-10-21T10:52:09.652Z,98736.52
2022-10-21T10:57:18.474Z,98723.65
2022-10-21T11:02:48.258Z,98716.27
2022-10-21T11:07:52.919Z,98701.80
2022-10-21T11:12:54.720Z,98689.12
2022-10-21T11:18:17.008Z,98687.82
2022-10-21T11:23:52.350Z,98677.31
2022-10-21T11:29:12.075Z,98668.62
2022-10-21T11:34:22.517Z,98666.43
2022-10-21T11:39:48.593Z,98656.83
2022-10-21T11:45:02.401Z,98642.27
2022-10-21T11:50:35.587Z,98627.60
2022-10-21T11:55:43.792Z,98615.83
2022-10-21T12:01:14.911Z,98630.74
2022-10-21T12:06:30.588Z,98622.73
2022-10-21T12:11:41.868Z,98599.63
2022-10-21T12:16:45.347Z,98584.23
2022-10-21T12:21:47.549Z,98589.79
2022-10-21T12:26:58.429Z,98602.63
2022-10-21T12:32:10.720Z,98584.72
2022-10-21T12:37:50.441Z,98581.02
2022-10-21T12:43:05.342Z,98588.80
2022-10-21T12:48:32.661Z,98584.15
2022-10-21T12:53:42.223Z,98555.80
2022-10-21T12:58:46.225Z,98553.27
2022-10-21T13:03:52.312Z,98551.16
2022-10-21T13:08:55.677Z,98561.64
2022-10-21T13:14:33.503Z,98572.71
2022-10-21T13:19:37.943Z,98581.70
2022-10-21T13:24:41.175Z,98579.54
2022-10-21T13:29:48.447Z,98576.45
2022-10-21T13:35:01.927Z,98580.04
2022-10-21T13:40:07.835Z,98576.94
2022-10-21T13:45:48.178Z,98576.48
2022-10-21T13:50:51.933Z,98588.72
2022-10-21T13:55:59.341Z,98592.16
2022-10-21T14:01:27.397Z,98596.58
2022-10-21T14:06:36.168Z,98596.39
2022-10-21T14:11:46.981Z,98598.76
2022-10-21T14:16:52.990Z,98598.33
2022-10-21T14:21:58.667Z,98595.02
2022-10-21T14:27:01.894Z,98593.98
2022-10-21T14:32:05.722Z,98602.27
2022-10-21T14:37:11.874Z,98597.42
2022-10-21T14:42:20.256Z,98597.89
2022-10-21T14:47:25.612Z,98598.72
2022-10-21T14:52:32.710Z,98603.58
2022-10-21T14:57:53.692Z,98602.95
2022-10-21T15:02:56.867Z,98597.91
2022-10-21T15:08:21.679Z,98602.16
2022-10-21T15:13:25.878Z,98608.61
2022-10-21T15:18:36.875Z,98615.25
2022-10-21T15:23:42.136Z,98618.61
2022-10-21T15:28:44.580Z,98628.04
2022-10-21T15:33:48.768Z,98628.98
2022-10-21T15:38:50.906Z,98629.82
2022-10-21T15:44:04.463Z,98626.44
2022-10-21T15:49:13.310Z,98622.52
2022-10-21T15:54:16.206Z,98619.59
2022-10-21T15:59:27.033Z,98620.15
2022-10-21T16:04:28.800Z,98612.52
2022-10-21T16:09:30.528Z,98623.78
2022-10-21T16:14:32.340Z,98625.90
2022-10-21T16:19:34.135Z,98629.58
2022-10-21T16:24:35.829Z,98630.86
2022-10-21T16:29:37.666Z,98632.52
2022-10-21T16:34:40.259Z,98641.93
2022-10-21T16:39:42.087Z,98649.73
2022-10-21T16:44:46.768Z,98653.98
2022-10-21T16:49:49.314Z,98658.16
2022-10-21T16:54:51.217Z,98656.61
2022-10-21T16:59:53.229Z,98651.27
2022-10-21T17:04:55.309Z,98653.04
2022-10-21T17:09:57.139Z,98656.92
2022-10-21T17:14:59.555Z,98659.79
2022-10-21T17:20:01.440Z,98659.25
2022-10-21T17:25:04.169Z,98660.90
2022-10-21T17:30:06.620Z,98659.96
2022-10-21T17:35:14.999Z,98655.09
2022-10-21T17:40:27.315Z,98643.55
2022-10-21T17:45:29.172Z,98625.48
2022-10-21T17:50:32.018Z,98621.09
2022-10-21T17:55:33.853Z,98613.34
2022-10-21T18:00:35.893Z,98604.27
2022-10-21T18:05:41.306Z,98596.41
2022-10-21T18:10:43.221Z,98583.86
2022-10-21T18:15:45.108Z,98578.73
2022-10-21T18:20:47.376Z,98560.80
2022-10-21T18:25:49.112Z,98553.39
2022-10-21T18:30:52.038Z,98540.83
2022-10-21T18:35:54.454Z,98548.25
2022-10-21T18:41:01.934Z,98552.97
2022-10-21T18:46:05.272Z,98557.27
2022-10-21T18:51:09.366Z,98558.57
2022-10-21T18:56:13.585Z,98561.39
2022-10-21T19:01:15.863Z,98560.45
2022-10-21T19:06:36.243Z,98555.60
2022-10-21T19:11:38.203Z,98553.95
2022-10-21T19:16:40.255Z,98554.67
2022-10-21T19:21:42.484Z,98544.98
2022-10-21T19:26:46.336Z,98544.80
2022-10-21T19:31:48.871Z,98546.38
2022-10-21T19:36:53.021Z,98556.24
2022-10-21T19:41:54.998Z,98558.51
2022-10-21T19:46:56.872Z,98555.45
2022-10-21T19:51:58.850Z,98569.85
2022-10-21T19:57:00.697Z,98564.36
2022-10-21T20:02:03.061Z,98561.35
2022-10-21T20:07:05.107Z,98555.54
2022-10-21T20:12:06.901Z,98559.59
2022-10-21T20:17:08.966Z,98570.07
2022-10-21T20:22:10.787Z,98570.38
2022-10-21T20:27:12.577Z,98572.80
2022-10-21T20:32:14.391Z,98580.45
2022-10-21T20:37:16.187Z,98586.86
2022-10-21T20:42:18.032Z,98588.75
2022-10-21T20:47:19.872Z,98583.59
2022-10-21T20:52:21.709Z,98569.20
2022-10-21T20:57:23.641Z,98562.24
2022-10-21T21:02:25.349Z,98555.34
2022-10-21T21:07:27.128Z,98541.98
2022-10-21T21:12:33.845Z,98531.77
2022-10-21T21:17:35.640Z,98535.44
2022-10-21T21:22:37.887Z,98538.65
2022-10-21T21:27:40.131Z,98539.41
2022-10-21T21:32:44.171Z,98534.04
2022-10-21T21:37:46.171Z,98523.15
2022-10-21T21:42:47.948Z,98525.57
2022-10-21T21:47:50.688Z,98538.20
2022-10-21T21:52:52.426Z,98542.45
2022-10-21T21:57:54.172Z,98544.17
2022-10-21T22:02:56.359Z,98533.73
2022-10-21T22:07:59.124Z,98532.95
2022-10-21T22:13:01.040Z,98524.37
2022-10-21T22:18:02.793Z,98504.58
2022-10-21T22:23:05.180Z,98500.70
2022-10-21T22:28:06.895Z,98492.55
2022-10-21T22:33:08.759Z,98476.24
2022-10-21T22:38:10.484Z,98475.91
2022-10-21T22:43:12.333Z,98489.42
2022-10-21T22:48:14.142Z,98494.48
2022-10-21T22:53:15.958Z,98503.63
2022-10-21T22:58:19.951Z,98498.66
2022-10-21T23:03:21.752Z,98495.93
2022-10-21T23:08:25.827Z,98491.96
2022-10-21T23:13:35.411Z,98492.47
2022-10-21T23:18:37.234Z,98489.71
2022-10-21T23:23:39.259Z,98489.15
2022-10-21T23:28:40.991Z,98491.08
2022-10-21T23:33:43.104Z,98490.71
2022-10-21T23:38:44.849Z,98487.27
2022-10-21T23:43:46.610Z,98488.48
2022-10-21T23:48:48.692Z,98496.63
2022-10-21T23:53:50.464Z,98495.79
2022-10-21T23:58:52.256Z,98486.81
